createdAt,value
2017-06-12T00:00:26.354Z,1002.02
2017-06-12T00:01:26.367Z,1001.99
2017-06-12T00:02:26.325Z,1001.98
2017-06-12T00:03:26.299Z,1001.98
2017-06-12T00:04:26.364Z,1001.94
2017-06-12T00:05:26.373Z,1001.93
2017-06-12T00:06:26.335Z,1001.95
2017-06-12T00:07:26.304Z,1001.95
2017-06-12T00:08:26.361Z,1001.98
2017-06-12T00:09:26.368Z,1001.99
2017-06-12T00:10:26.340Z,1001.94
2017-06-12T00:11:26.340Z,1001.92
2017-06-12T00:12:26.338Z,1001.96
2017-06-12T00:13:26.344Z,1001.95
2017-06-12T00:14:26.343Z,1001.90
2017-06-12T00:15:26.349Z,1001.94
2017-06-12T00:16:26.345Z,1001.98
2017-06-12T00:17:26.350Z,1002.00
2017-06-12T00:18:26.347Z,1002.06
2017-06-12T00:19:26.347Z,1002.05
2017-06-12T00:20:26.362Z,1002.02
2017-06-12T00:21:26.358Z,1002.07
2017-06-12T00:22:26.363Z,1002.03
2017-06-12T00:23:26.364Z,1002.01
2017-06-12T00:24:26.369Z,1001.99
2017-06-12T00:25:26.363Z,1001.99
2017-06-12T00:26:26.364Z,1002.06
2017-06-12T00:27:26.363Z,1002.07
2017-06-12T00:28:26.365Z,1002.12
2017-06-12T00:29:26.367Z,1002.18
2017-06-12T00:30:26.350Z,1002.19
2017-06-12T00:31:26.272Z,1002.19
2017-06-12T00:32:26.347Z,1002.17
2017-06-12T00:33:26.343Z,1002.23
2017-06-12T00:34:26.348Z,1002.29
2017-06-12T00:35:26.353Z,1002.33
2017-06-12T00:36:26.350Z,1002.37
2017-06-12T00:37:26.352Z,1002.33
2017-06-12T00:38:26.354Z,1002.41
2017-06-12T00:39:26.355Z,1002.33
2017-06-12T00:40:26.385Z,1002.28
2017-06-12T00:41:26.301Z,1002.31
2017-06-12T00:42:26.302Z,1002.23
2017-06-12T00:43:26.388Z,1002.23
2017-06-12T00:44:26.394Z,1002.20
2017-06-12T00:45:26.307Z,1002.21
2017-06-12T00:46:26.387Z,1002.21
2017-06-12T00:47:26.389Z,1002.18
2017-06-12T00:48:26.353Z,1002.23
2017-06-12T00:49:26.303Z,1002.23
2017-06-12T00:50:26.419Z,1002.27
2017-06-12T00:51:26.399Z,1002.20
2017-06-12T00:52:26.386Z,1002.17
2017-06-12T00:53:26.439Z,1002.08
2017-06-12T00:54:26.397Z,1002.11
2017-06-12T00:55:26.449Z,1002.11
2017-06-12T00:56:26.310Z,1002.13
2017-06-12T00:57:26.385Z,1002.15
2017-06-12T00:58:26.406Z,1002.18
2017-06-12T00:59:26.312Z,1002.19
2017-06-12T01:00:26.395Z,1002.23
2017-06-12T01:01:26.416Z,1002.28
2017-06-12T01:02:26.382Z,1002.29
2017-06-12T01:03:26.387Z,1002.37
2017-06-12T01:04:26.395Z,1002.35
2017-06-12T01:05:26.395Z,1002.29
2017-06-12T01:06:26.384Z,1002.29
2017-06-12T01:07:26.396Z,1002.29
2017-06-12T01:08:26.399Z,1002.35
2017-06-12T01:09:26.387Z,1002.29
2017-06-12T01:10:26.382Z,1002.39
2017-06-12T01:11:26.405Z,1002.34
2017-06-12T01:12:26.316Z,1002.39
2017-06-12T01:13:26.411Z,1002.37
2017-06-12T01:14:26.392Z,1002.40
2017-06-12T01:15:26.375Z,1002.42
2017-06-12T01:16:26.389Z,1002.44
2017-06-12T01:17:26.404Z,1002.37
2017-06-12T01:18:26.405Z,1002.30
2017-06-12T01:19:26.398Z,1002.26
2017-06-12T01:20:26.434Z,1002.23
2017-06-12T01:21:26.415Z,1002.26
2017-06-12T01:22:26.407Z,1002.24
2017-06-12T01:23:26.328Z,1002.23
2017-06-12T01:24:26.420Z,1002.23
2017-06-12T01:25:26.392Z,1002.19
2017-06-12T01:26:26.409Z,1002.24
2017-06-12T01:27:26.414Z,1002.25
2017-06-12T01:28:26.396Z,1002.22
2017-06-12T01:29:26.411Z,1002.27
2017-06-12T01:30:26.378Z,1002.32
2017-06-12T01:31:26.413Z,1002.37
2017-06-12T01:32:26.378Z,1002.40
2017-06-12T01:33:26.326Z,1002.43
2017-06-12T01:34:26.333Z,1002.39
2017-06-12T01:35:26.377Z,1002.35
2017-06-12T01:36:26.413Z,1002.32
2017-06-12T01:37:26.400Z,1002.29
2017-06-12T01:38:26.440Z,1002.29
2017-06-12T01:39:26.422Z,1002.30
2017-06-12T01:40:26.337Z,1002.29
2017-06-12T01:41:26.400Z,1002.31
2017-06-12T01:42:26.405Z,1002.34
2017-06-12T01:43:26.403Z,1002.25
2017-06-12T01:44:26.406Z,1002.26
2017-06-12T01:45:26.405Z,1002.28
2017-06-12T01:46:26.404Z,1002.26
2017-06-12T01:47:26.403Z,1002.30
2017-06-12T01:48:26.420Z,1002.31
2017-06-12T01:49:26.410Z,1002.28
2017-06-12T01:50:26.410Z,1002.31
2017-06-12T01:51:26.424Z,1002.30
2017-06-12T01:52:26.426Z,1002.32
2017-06-12T01:53:26.343Z,1002.32
2017-06-12T01:54:26.430Z,1002.31
2017-06-12T01:55:26.425Z,1002.28
2017-06-12T01:56:26.434Z,1002.32
2017-06-12T01:57:26.422Z,1002.31
2017-06-12T01:58:26.341Z,1002.32
2017-06-12T01:59:26.436Z,1002.37
2017-06-12T02:00:26.429Z,1002.31
2017-06-12T02:01:26.430Z,1002.33
2017-06-12T02:02:26.430Z,1002.36
2017-06-12T02:03:26.427Z,1002.35
2017-06-12T02:04:26.339Z,1002.32
2017-06-12T02:05:26.433Z,1002.30
2017-06-12T02:06:26.355Z,1002.31
2017-06-12T02:07:26.438Z,1002.35
2017-06-12T02:08:26.344Z,1002.31
2017-06-12T02:09:26.432Z,1002.36
2017-06-12T02:10:26.434Z,1002.39
2017-06-12T02:11:26.439Z,1002.48
2017-06-12T02:12:26.349Z,1002.50
2017-06-12T02:13:26.347Z,1002.53
2017-06-12T02:14:26.350Z,1002.51
2017-06-12T02:15:26.348Z,1002.56
2017-06-12T02:16:26.348Z,1002.60
2017-06-12T02:17:26.348Z,1002.54
2017-06-12T02:18:26.349Z,1002.48
2017-06-12T02:19:26.386Z,1002.46
2017-06-12T02:20:26.347Z,1002.41
2017-06-12T02:21:26.332Z,1002.47
2017-06-12T02:22:26.349Z,1002.46
2017-06-12T02:23:26.348Z,1002.44
2017-06-12T02:24:26.350Z,1002.40
2017-06-12T02:25:26.350Z,1002.48
2017-06-12T02:26:26.345Z,1002.46
2017-06-12T02:27:26.451Z,1002.45
2017-06-12T02:28:26.349Z,1002.52
2017-06-12T02:29:26.350Z,1002.48
2017-06-12T02:30:26.350Z,1002.47
2017-06-12T02:31:26.359Z,1002.49
2017-06-12T02:32:26.438Z,1002.51
2017-06-12T02:33:26.453Z,1002.52
2017-06-12T02:34:26.441Z,1002.42
2017-06-12T02:35:26.456Z,1002.32
2017-06-12T02:36:26.459Z,1002.33
2017-06-12T02:37:26.368Z,1002.38
2017-06-12T02:38:26.444Z,1002.34
2017-06-12T02:39:26.360Z,1002.36
2017-06-12T02:40:26.369Z,1002.44
2017-06-12T02:41:26.431Z,1002.48
2017-06-12T02:42:26.423Z,1002.54
2017-06-12T02:43:26.424Z,1002.54
2017-06-12T02:44:26.422Z,1002.56
2017-06-12T02:45:26.425Z,1002.59
2017-06-12T02:46:26.425Z,1002.60
2017-06-12T02:47:26.425Z,1002.70
2017-06-12T02:48:26.426Z,1002.57
2017-06-12T02:49:26.426Z,1002.61
2017-06-12T02:50:26.429Z,1002.58
2017-06-12T02:51:26.460Z,1002.54
2017-06-12T02:52:26.459Z,1002.53
2017-06-12T02:53:26.380Z,1002.58
2017-06-12T02:54:26.458Z,1002.59
2017-06-12T02:55:26.442Z,1002.55
2017-06-12T02:56:26.373Z,1002.50
2017-06-12T02:57:26.376Z,1002.47
2017-06-12T02:58:26.425Z,1002.51
2017-06-12T02:59:26.464Z,1002.53
2017-06-12T03:00:26.465Z,1002.47
2017-06-12T03:01:26.453Z,1002.46
2017-06-12T03:02:26.428Z,1002.49
2017-06-12T03:03:26.452Z,1002.45
2017-06-12T03:04:26.384Z,1002.43
2017-06-12T03:05:26.470Z,1002.48
2017-06-12T03:06:26.467Z,1002.49
2017-06-12T03:07:26.394Z,1002.58
2017-06-12T03:08:26.467Z,1002.62
2017-06-12T03:09:26.389Z,1002.67
2017-06-12T03:10:26.467Z,1002.58
2017-06-12T03:11:26.451Z,1002.64
2017-06-12T03:12:26.450Z,1002.59
2017-06-12T03:13:26.458Z,1002.60
2017-06-12T03:14:26.453Z,1002.60
2017-06-12T03:15:26.453Z,1002.58
2017-06-12T03:16:26.532Z,1002.70
2017-06-12T03:17:26.457Z,1002.67
2017-06-12T03:18:26.452Z,1002.68
2017-06-12T03:19:26.407Z,1002.67
2017-06-12T03:20:26.392Z,1002.70
2017-06-12T03:21:26.476Z,1002.68
2017-06-12T03:22:26.469Z,1002.66
2017-06-12T03:23:26.481Z,1002.65
2017-06-12T03:24:26.438Z,1002.66
2017-06-12T03:25:26.393Z,1002.65
2017-06-12T03:26:26.387Z,1002.66
2017-06-12T03:27:26.391Z,1002.66
2017-06-12T03:28:26.457Z,1002.60
2017-06-12T03:29:26.397Z,1002.66
2017-06-12T03:30:26.457Z,1002.79
2017-06-12T03:31:26.447Z,1002.81
2017-06-12T03:32:26.446Z,1002.80
2017-06-12T03:33:26.445Z,1002.77
2017-06-12T03:34:26.444Z,1002.83
2017-06-12T03:35:26.446Z,1002.87
2017-06-12T03:36:26.549Z,1002.88
2017-06-12T03:37:26.550Z,1002.90
2017-06-12T03:38:26.448Z,1002.89
2017-06-12T03:39:26.479Z,1002.88
2017-06-12T03:40:26.450Z,1002.87
2017-06-12T03:41:26.549Z,1002.95
2017-06-12T03:42:26.465Z,1002.99
2017-06-12T03:43:26.463Z,1002.98
2017-06-12T03:44:26.405Z,1002.97
2017-06-12T03:45:26.402Z,1002.96
2017-06-12T03:46:26.466Z,1002.94
2017-06-12T03:47:26.467Z,1002.97
2017-06-12T03:48:26.466Z,1002.92
2017-06-12T03:49:26.468Z,1002.96
2017-06-12T03:50:26.467Z,1002.92
2017-06-12T03:51:26.391Z,1002.96
2017-06-12T03:52:26.397Z,1002.98
2017-06-12T03:53:26.375Z,1002.97
2017-06-12T03:54:26.443Z,1003.02
2017-06-12T03:55:26.388Z,1003.04
2017-06-12T03:56:26.446Z,1002.99
2017-06-12T03:57:26.476Z,1002.96
2017-06-12T03:58:26.383Z,1002.98
2017-06-12T03:59:26.396Z,1002.97
2017-06-12T04:00:26.438Z,1003.00
2017-06-12T04:01:26.411Z,1002.97
2017-06-12T04:02:26.504Z,1002.92
2017-06-12T04:03:26.495Z,1002.87
2017-06-12T04:04:26.474Z,1002.95
2017-06-12T04:05:26.502Z,1003.02
2017-06-12T04:06:26.499Z,1002.99
2017-06-12T04:07:26.413Z,1003.04
2017-06-12T04:08:26.499Z,1002.97
2017-06-12T04:09:26.412Z,1003.02
2017-06-12T04:10:26.420Z,1003.04
2017-06-12T04:11:26.485Z,1003.06
2017-06-12T04:12:26.509Z,1003.09
2017-06-12T04:13:26.408Z,1003.12
2017-06-12T04:14:26.393Z,1003.11
2017-06-12T04:15:26.464Z,1003.11
2017-06-12T04:16:26.395Z,1003.02
2017-06-12T04:17:26.406Z,1002.97
2017-06-12T04:18:26.399Z,1003.04
2017-06-12T04:19:26.457Z,1003.13
2017-06-12T04:20:26.442Z,1003.12
2017-06-12T04:21:26.514Z,1003.15
2017-06-12T04:22:26.509Z,1003.16
2017-06-12T04:23:26.426Z,1003.21
2017-06-12T04:24:26.466Z,1003.16
2017-06-12T04:25:26.512Z,1003.21
2017-06-12T04:26:26.416Z,1003.24
2017-06-12T04:27:26.426Z,1003.22
2017-06-12T04:28:26.420Z,1003.16
2017-06-12T04:29:26.483Z,1003.19
2017-06-12T04:30:26.507Z,1003.12
2017-06-12T04:31:26.491Z,1003.06
2017-06-12T04:32:26.491Z,1003.11
2017-06-12T04:33:26.491Z,1003.14
2017-06-12T04:34:26.493Z,1003.07
2017-06-12T04:35:26.491Z,1003.13
2017-06-12T04:36:26.435Z,1003.10
2017-06-12T04:37:26.490Z,1003.18
2017-06-12T04:38:26.492Z,1003.15
2017-06-12T04:39:26.497Z,1003.23
2017-06-12T04:40:26.493Z,1003.30
2017-06-12T04:41:26.477Z,1003.32
2017-06-12T04:42:26.511Z,1003.32
2017-06-12T04:43:26.520Z,1003.29
2017-06-12T04:44:26.430Z,1003.28
2017-06-12T04:45:26.516Z,1003.28
2017-06-12T04:46:26.519Z,1003.26
2017-06-12T04:47:26.518Z,1003.27
2017-06-12T04:48:26.484Z,1003.18
2017-06-12T04:49:26.522Z,1003.18
2017-06-12T04:50:26.475Z,1003.18
2017-06-12T04:51:26.435Z,1003.23
2017-06-12T04:52:26.424Z,1003.26
2017-06-12T04:53:26.459Z,1003.24
2017-06-12T04:54:26.515Z,1003.25
2017-06-12T04:55:26.406Z,1003.28
2017-06-12T04:56:26.386Z,1003.34
2017-06-12T04:57:26.429Z,1003.33
2017-06-12T04:58:26.419Z,1003.39
2017-06-12T04:59:26.501Z,1003.28
2017-06-12T05:00:26.449Z,1003.25
2017-06-12T05:01:26.510Z,1003.22
2017-06-12T05:02:26.517Z,1003.26
2017-06-12T05:03:26.510Z,1003.26
2017-06-12T05:04:26.514Z,1003.25
2017-06-12T05:05:26.508Z,1003.20
2017-06-12T05:06:26.521Z,1003.19
2017-06-12T05:07:26.517Z,1003.22
2017-06-12T05:08:26.515Z,1003.28
2017-06-12T05:09:26.516Z,1003.15
2017-06-12T05:10:26.527Z,1003.13
2017-06-12T05:11:26.514Z,1003.16
2017-06-12T05:12:26.492Z,1003.19
2017-06-12T05:13:26.528Z,1003.16
2017-06-12T05:14:26.537Z,1003.23
2017-06-12T05:15:26.531Z,1003.34
2017-06-12T05:16:26.534Z,1003.32
2017-06-12T05:17:26.448Z,1003.31
2017-06-12T05:18:26.549Z,1003.31
2017-06-12T05:19:26.532Z,1003.35
2017-06-12T05:20:26.449Z,1003.27
2017-06-12T05:21:26.450Z,1003.33
2017-06-12T05:22:26.518Z,1003.26
2017-06-12T05:23:26.523Z,1003.29
2017-06-12T05:24:26.549Z,1003.31
2017-06-12T05:25:26.521Z,1003.32
2017-06-12T05:26:26.522Z,1003.36
2017-06-12T05:27:26.521Z,1003.35
2017-06-12T05:28:26.524Z,1003.37
2017-06-12T05:29:26.607Z,1003.38
2017-06-12T05:30:26.521Z,1003.42
2017-06-12T05:31:26.522Z,1003.38
2017-06-12T05:32:26.524Z,1003.37
2017-06-12T05:33:26.525Z,1003.34
2017-06-12T05:34:26.522Z,1003.35
2017-06-12T05:35:26.529Z,1003.37
2017-06-12T05:36:26.522Z,1003.40
2017-06-12T05:37:26.525Z,1003.34
2017-06-12T05:38:26.530Z,1003.42
2017-06-12T05:39:26.519Z,1003.56
2017-06-12T05:40:26.527Z,1003.50
2017-06-12T05:41:26.526Z,1003.48
2017-06-12T05:42:26.507Z,1003.54
2017-06-12T05:43:26.463Z,1003.56
2017-06-12T05:44:26.546Z,1003.62
2017-06-12T05:45:26.549Z,1003.59
2017-06-12T05:46:26.548Z,1003.60
2017-06-12T05:47:26.471Z,1003.58
2017-06-12T05:48:26.511Z,1003.52
2017-06-12T05:49:26.556Z,1003.55
2017-06-12T05:50:26.465Z,1003.63
2017-06-12T05:51:26.559Z,1003.60
2017-06-12T05:52:26.548Z,1003.69
2017-06-12T05:53:26.656Z,1003.75
2017-06-12T05:54:26.611Z,1003.76
2017-06-12T05:55:26.555Z,1003.63
2017-06-12T05:56:26.544Z,1003.66
2017-06-12T05:57:26.556Z,1003.60
2017-06-12T05:58:26.533Z,1003.68
2017-06-12T05:59:26.551Z,1003.66
2017-06-12T06:00:26.557Z,1003.69
2017-06-12T06:01:26.561Z,1003.74
2017-06-12T06:02:26.540Z,1003.58
2017-06-12T06:03:26.441Z,1003.64
2017-06-12T06:04:26.455Z,1003.63
2017-06-12T06:05:26.492Z,1003.63
2017-06-12T06:06:26.442Z,1003.68
2017-06-12T06:07:26.457Z,1003.69
2017-06-12T06:08:26.496Z,1003.68
2017-06-12T06:09:26.449Z,1003.64
2017-06-12T06:10:26.497Z,1003.71
2017-06-12T06:11:26.500Z,1003.65
2017-06-12T06:12:26.535Z,1003.63
2017-06-12T06:13:26.533Z,1003.65
2017-06-12T06:14:26.537Z,1003.62
2017-06-12T06:15:26.535Z,1003.67
2017-06-12T06:16:26.535Z,1003.68
2017-06-12T06:17:26.533Z,1003.74
2017-06-12T06:18:26.532Z,1003.80
2017-06-12T06:19:26.634Z,1003.82
2017-06-12T06:20:26.539Z,1003.82
2017-06-12T06:21:26.538Z,1003.82
2017-06-12T06:22:26.568Z,1003.85
2017-06-12T06:23:26.487Z,1003.86
2017-06-12T06:24:26.568Z,1003.81
2017-06-12T06:25:26.526Z,1003.93
2017-06-12T06:26:26.537Z,1003.85
2017-06-12T06:27:26.566Z,1003.85
2017-06-12T06:28:26.513Z,1003.72
2017-06-12T06:29:26.573Z,1003.95
2017-06-12T06:30:26.517Z,1003.92
2017-06-12T06:31:26.582Z,1003.95
2017-06-12T06:32:26.578Z,1004.00
2017-06-12T06:33:26.575Z,1003.93
2017-06-12T06:34:26.509Z,1003.92
2017-06-12T06:35:26.518Z,1003.95
2017-06-12T06:36:26.582Z,1003.94
2017-06-12T06:37:26.578Z,1003.93
2017-06-12T06:38:26.630Z,1003.84
2017-06-12T06:39:26.571Z,1003.84
2017-06-12T06:40:26.570Z,1003.83
2017-06-12T06:41:26.571Z,1003.86
2017-06-12T06:42:26.549Z,1003.84
2017-06-12T06:43:26.549Z,1003.81
2017-06-12T06:44:26.550Z,1003.71
2017-06-12T06:45:26.553Z,1003.79
2017-06-12T06:46:26.553Z,1003.77
2017-06-12T06:47:26.558Z,1003.82
2017-06-12T06:48:26.554Z,1003.91
2017-06-12T06:49:26.549Z,1003.87
2017-06-12T06:50:26.550Z,1003.80
2017-06-12T06:51:26.553Z,1003.76
2017-06-12T06:52:26.566Z,1003.81
2017-06-12T06:53:26.562Z,1003.81
2017-06-12T06:54:26.497Z,1003.77
2017-06-12T06:55:26.504Z,1003.77
2017-06-12T06:56:26.505Z,1003.73
2017-06-12T06:57:26.595Z,1003.84
2017-06-12T06:58:26.510Z,1003.73
2017-06-12T06:59:26.594Z,1003.77
2017-06-12T07:00:26.589Z,1003.87
2017-06-12T07:01:26.587Z,1003.85
2017-06-12T07:02:26.562Z,1003.89
2017-06-12T07:03:26.661Z,1003.88
2017-06-12T07:04:26.560Z,1003.91
2017-06-12T07:05:26.562Z,1003.92
2017-06-12T07:06:26.562Z,1003.96
2017-06-12T07:07:26.563Z,1003.93
2017-06-12T07:08:26.561Z,1003.86
2017-06-12T07:09:26.564Z,1003.89
2017-06-12T07:10:26.568Z,1003.84
2017-06-12T07:11:26.564Z,1003.80
2017-06-12T07:12:26.563Z,1003.85
2017-06-12T07:13:26.567Z,1003.90
2017-06-12T07:14:26.564Z,1003.89
2017-06-12T07:15:26.564Z,1003.83
2017-06-12T07:16:26.564Z,1003.93
2017-06-12T07:17:26.568Z,1003.85
2017-06-12T07:18:26.563Z,1003.85
2017-06-12T07:19:26.568Z,1003.85
2017-06-12T07:20:26.571Z,1003.85
2017-06-12T07:21:26.572Z,1003.78
2017-06-12T07:22:26.583Z,1003.88
2017-06-12T07:23:26.601Z,1003.85
2017-06-12T07:24:26.527Z,1003.82
2017-06-12T07:25:26.584Z,1003.88
2017-06-12T07:26:26.589Z,1003.87
2017-06-12T07:27:26.583Z,1003.90
2017-06-12T07:28:26.585Z,1003.94
2017-06-12T07:29:26.584Z,1003.86
2017-06-12T07:30:26.586Z,1003.87
2017-06-12T07:31:26.587Z,1003.82
2017-06-12T07:32:26.574Z,1003.86
2017-06-12T07:33:26.576Z,1003.75
2017-06-12T07:34:26.580Z,1003.82
2017-06-12T07:35:26.577Z,1003.80
2017-06-12T07:36:26.579Z,1003.78
2017-06-12T07:37:26.576Z,1003.76
2017-06-12T07:38:26.582Z,1003.90
2017-06-12T07:39:26.676Z,1003.79
2017-06-12T07:40:26.683Z,1003.86
2017-06-12T07:41:26.679Z,1003.82
2017-06-12T07:42:26.594Z,1003.85
2017-06-12T07:43:26.595Z,1003.88
2017-06-12T07:44:26.597Z,1003.85
2017-06-12T07:45:26.596Z,1003.83
2017-06-12T07:46:26.596Z,1003.89
2017-06-12T07:47:26.597Z,1003.93
2017-06-12T07:48:26.598Z,1003.96
2017-06-12T07:49:26.630Z,1003.92
2017-06-12T07:50:26.597Z,1004.00
2017-06-12T07:51:26.600Z,1004.00
2017-06-12T07:52:26.526Z,1003.97
2017-06-12T07:53:26.608Z,1003.91
2017-06-12T07:54:26.621Z,1003.99
2017-06-12T07:55:26.539Z,1004.00
2017-06-12T07:56:26.619Z,1003.93
2017-06-12T07:57:26.625Z,1003.99
2017-06-12T07:58:26.623Z,1003.97
2017-06-12T07:59:26.614Z,1004.00
2017-06-12T08:00:26.601Z,1004.07
2017-06-12T08:01:26.533Z,1003.99
2017-06-12T08:02:26.583Z,1004.00
2017-06-12T08:03:26.624Z,1003.99
2017-06-12T08:04:26.631Z,1004.00
2017-06-12T08:05:26.547Z,1003.91
2017-06-12T08:06:26.625Z,1003.96
2017-06-12T08:07:26.627Z,1003.88
2017-06-12T08:08:26.622Z,1003.88
2017-06-12T08:09:26.542Z,1003.94
2017-06-12T08:10:26.627Z,1004.00
2017-06-12T08:11:26.632Z,1004.07
2017-06-12T08:12:26.608Z,1004.01
2017-06-12T08:13:26.610Z,1004.00
2017-06-12T08:14:26.611Z,1004.01
2017-06-12T08:15:26.614Z,1004.00
2017-06-12T08:16:26.612Z,1004.02
2017-06-12T08:17:26.615Z,1004.01
2017-06-12T08:18:26.614Z,1004.06
2017-06-12T08:19:26.610Z,1004.12
2017-06-12T08:20:26.615Z,1004.24
2017-06-12T08:21:26.616Z,1004.26
2017-06-12T08:22:26.636Z,1004.25
2017-06-12T08:23:26.597Z,1004.26
2017-06-12T08:24:26.557Z,1004.25
2017-06-12T08:25:26.631Z,1004.18
2017-06-12T08:26:26.618Z,1004.22
2017-06-12T08:27:26.555Z,1004.23
2017-06-12T08:28:26.557Z,1004.26
2017-06-12T08:29:26.614Z,1004.24
2017-06-12T08:30:26.557Z,1004.21
2017-06-12T08:31:26.553Z,1004.35
2017-06-12T08:32:26.637Z,1004.24
2017-06-12T08:33:26.606Z,1004.37
2017-06-12T08:34:26.608Z,1004.46
2017-06-12T08:35:26.612Z,1004.44
2017-06-12T08:36:26.612Z,1004.48
2017-06-12T08:37:26.609Z,1004.52
2017-06-12T08:38:26.612Z,1004.49
2017-06-12T08:39:26.615Z,1004.45
2017-06-12T08:40:26.618Z,1004.41
2017-06-12T08:41:26.618Z,1004.48
2017-06-12T08:42:26.616Z,1004.54
2017-06-12T08:43:26.642Z,1004.52
2017-06-12T08:44:26.557Z,1004.46
2017-06-12T08:45:26.561Z,1004.43
2017-06-12T08:46:26.636Z,1004.44
2017-06-12T08:47:26.648Z,1004.38
2017-06-12T08:48:26.646Z,1004.40
2017-06-12T08:49:26.648Z,1004.47
2017-06-12T08:50:26.648Z,1004.39
2017-06-12T08:51:26.625Z,1004.38
2017-06-12T08:52:26.562Z,1004.42
2017-06-12T08:53:26.657Z,1004.40
2017-06-12T08:54:26.565Z,1004.37
2017-06-12T08:55:26.607Z,1004.39
2017-06-12T08:56:26.570Z,1004.39
2017-06-12T08:57:26.566Z,1004.37
2017-06-12T08:58:26.653Z,1004.44
2017-06-12T08:59:26.570Z,1004.39
2017-06-12T09:00:26.654Z,1004.49
2017-06-12T09:01:26.660Z,1004.34
2017-06-12T09:02:26.576Z,1004.48
2017-06-12T09:03:26.637Z,1004.48
2017-06-12T09:04:26.656Z,1004.45
2017-06-12T09:05:26.657Z,1004.48
2017-06-12T09:06:26.661Z,1004.56
2017-06-12T09:07:26.579Z,1004.55
2017-06-12T09:08:26.666Z,1004.56
2017-06-12T09:09:26.662Z,1004.59
2017-06-12T09:10:26.578Z,1004.62
2017-06-12T09:11:26.596Z,1004.63
2017-06-12T09:12:26.581Z,1004.61
2017-06-12T09:13:26.629Z,1004.61
2017-06-12T09:14:26.633Z,1004.64
2017-06-12T09:15:26.631Z,1004.60
2017-06-12T09:16:26.633Z,1004.65
2017-06-12T09:17:26.630Z,1004.69
2017-06-12T09:18:26.639Z,1004.66
2017-06-12T09:19:26.635Z,1004.70
2017-06-12T09:20:26.635Z,1004.78
2017-06-12T09:21:26.635Z,1004.78
2017-06-12T09:22:26.637Z,1004.85
2017-06-12T09:23:26.635Z,1004.88
2017-06-12T09:24:26.636Z,1004.88
2017-06-12T09:25:26.640Z,1004.80
2017-06-12T09:26:26.640Z,1004.90
2017-06-12T09:27:26.639Z,1004.88
2017-06-12T09:28:26.638Z,1004.91
2017-06-12T09:29:26.639Z,1004.84
2017-06-12T09:30:26.642Z,1004.92
2017-06-12T09:31:26.640Z,1004.88
2017-06-12T09:32:26.639Z,1004.86
2017-06-12T09:33:26.632Z,1004.84
2017-06-12T09:34:26.664Z,1005.08
2017-06-12T09:35:26.673Z,1004.96
2017-06-12T09:36:26.632Z,1004.93
2017-06-12T09:37:26.650Z,1005.09
2017-06-12T09:38:26.636Z,1005.07
2017-06-12T09:39:26.648Z,1005.12
2017-06-12T09:40:26.670Z,1005.11
2017-06-12T09:41:26.602Z,1005.05
2017-06-12T09:42:26.590Z,1005.12
2017-06-12T09:43:26.678Z,1005.22
2017-06-12T09:44:26.658Z,1005.07
2017-06-12T09:45:26.672Z,1005.03
2017-06-12T09:46:26.688Z,1004.98
2017-06-12T09:47:26.684Z,1004.98
2017-06-12T09:48:26.642Z,1005.03
2017-06-12T09:49:26.683Z,1005.06
2017-06-12T09:50:26.624Z,1005.10
2017-06-12T09:51:26.599Z,1005.10
2017-06-12T09:52:26.677Z,1005.04
2017-06-12T09:53:26.668Z,1005.14
2017-06-12T09:54:26.663Z,1005.10
2017-06-12T09:55:26.664Z,1005.11
2017-06-12T09:56:26.665Z,1005.11
2017-06-12T09:57:26.598Z,1005.00
2017-06-12T09:58:26.667Z,1005.05
2017-06-12T10:00:26.668Z,1005.09
2017-06-12T10:01:26.594Z,1005.09
2017-06-12T10:02:26.671Z,1005.22
2017-06-12T10:03:26.634Z,1005.17
2017-06-12T10:04:26.630Z,1005.10
2017-06-12T10:05:26.569Z,1005.29
2017-06-12T10:06:26.591Z,1005.21
2017-06-12T10:07:26.645Z,1005.21
2017-06-12T10:08:26.632Z,1005.21
2017-06-12T10:09:26.644Z,1005.29
2017-06-12T10:10:26.598Z,1005.31
2017-06-12T10:11:26.604Z,1005.21
2017-06-12T10:12:26.646Z,1005.33
2017-06-12T10:13:26.702Z,1005.24
2017-06-12T10:14:26.675Z,1005.21
2017-06-12T10:15:26.698Z,1005.23
2017-06-12T10:16:26.691Z,1005.21
2017-06-12T10:17:26.612Z,1005.15
2017-06-12T10:18:26.641Z,1005.23
2017-06-12T10:19:26.745Z,1005.09
2017-06-12T10:20:26.704Z,1005.26
2017-06-12T10:21:26.700Z,1005.33
2017-06-12T10:22:26.702Z,1005.06
2017-06-12T10:23:26.642Z,1005.23
2017-06-12T10:24:26.639Z,1005.18
2017-06-12T10:25:26.697Z,1005.18
2017-06-12T10:26:26.596Z,1005.27
2017-06-12T10:27:26.560Z,1005.19
2017-06-12T10:28:26.562Z,1005.26
2017-06-12T10:29:26.564Z,1005.15
2017-06-12T10:30:26.570Z,1005.12
2017-06-12T10:31:26.584Z,1005.09
2017-06-12T10:32:26.628Z,1005.08
2017-06-12T10:33:26.626Z,1005.24
2017-06-12T10:34:26.707Z,1005.05
2017-06-12T10:35:26.671Z,1005.07
2017-06-12T10:36:26.714Z,1005.01
2017-06-12T10:37:26.686Z,1005.01
2017-06-12T10:38:26.714Z,1004.94
2017-06-12T10:39:26.710Z,1005.00
2017-06-12T10:40:26.620Z,1004.90
2017-06-12T10:41:26.719Z,1004.88
2017-06-12T10:42:26.710Z,1005.02
2017-06-12T10:43:26.626Z,1005.02
2017-06-12T10:44:26.716Z,1004.97
2017-06-12T10:45:26.670Z,1005.01
2017-06-12T10:46:26.710Z,1005.00
2017-06-12T10:47:26.713Z,1004.89
2017-06-12T10:48:26.713Z,1005.04
2017-06-12T10:49:26.650Z,1005.03
2017-06-12T10:50:26.630Z,1005.02
2017-06-12T10:51:26.743Z,1005.01
2017-06-12T10:52:26.674Z,1005.06
2017-06-12T10:53:26.683Z,1004.94
2017-06-12T10:54:26.685Z,1004.98
2017-06-12T10:55:26.687Z,1005.01
2017-06-12T10:56:26.687Z,1004.96
2017-06-12T10:57:26.685Z,1004.94
2017-06-12T10:58:26.687Z,1004.97
2017-06-12T10:59:26.691Z,1004.96
2017-06-12T11:00:26.689Z,1005.04
2017-06-12T11:01:26.689Z,1005.09
2017-06-12T11:02:26.690Z,1005.07
2017-06-12T11:03:26.705Z,1005.17
2017-06-12T11:04:26.707Z,1005.05
2017-06-12T11:05:26.703Z,1005.09
2017-06-12T11:06:26.705Z,1005.13
2017-06-12T11:07:26.708Z,1005.08
2017-06-12T11:08:26.709Z,1005.04
2017-06-12T11:09:26.707Z,1004.97
2017-06-12T11:10:26.708Z,1004.95
2017-06-12T11:11:26.711Z,1005.02
2017-06-12T11:12:26.707Z,1005.06
2017-06-12T11:13:26.737Z,1005.06
2017-06-12T11:14:26.645Z,1005.06
2017-06-12T11:15:26.648Z,1005.13
2017-06-12T11:16:26.726Z,1005.17
2017-06-12T11:17:26.728Z,1005.09
2017-06-12T11:18:26.731Z,1005.17
2017-06-12T11:19:26.645Z,1005.14
2017-06-12T11:20:26.692Z,1005.13
2017-06-12T11:21:26.740Z,1005.18
2017-06-12T11:22:26.692Z,1005.17
2017-06-12T11:23:26.716Z,1005.22
2017-06-12T11:24:26.716Z,1005.21
2017-06-12T11:25:26.715Z,1005.28
2017-06-12T11:26:26.714Z,1005.22
2017-06-12T11:27:26.716Z,1005.29
2017-06-12T11:28:26.717Z,1005.23
2017-06-12T11:29:26.714Z,1005.26
2017-06-12T11:30:26.719Z,1005.32
2017-06-12T11:31:26.694Z,1005.41
2017-06-12T11:32:26.719Z,1005.39
2017-06-12T11:33:26.721Z,1005.47
2017-06-12T11:34:26.626Z,1005.40
2017-06-12T11:35:26.692Z,1005.38
2017-06-12T11:36:26.623Z,1005.52
2017-06-12T11:37:26.620Z,1005.33
2017-06-12T11:38:26.629Z,1005.34
2017-06-12T11:39:26.727Z,1005.37
2017-06-12T11:40:26.726Z,1005.34
2017-06-12T11:41:26.702Z,1005.48
2017-06-12T11:42:26.628Z,1005.49
2017-06-12T11:43:26.793Z,1005.55
2017-06-12T11:44:26.745Z,1005.47
2017-06-12T11:45:26.746Z,1005.45
2017-06-12T11:46:26.663Z,1005.40
2017-06-12T11:47:26.739Z,1005.51
2017-06-12T11:48:26.687Z,1005.49
2017-06-12T11:49:26.654Z,1005.47
2017-06-12T11:50:26.654Z,1005.44
2017-06-12T11:51:26.750Z,1005.43
2017-06-12T11:52:26.745Z,1005.44
2017-06-12T11:53:26.729Z,1005.38
2017-06-12T11:54:26.813Z,1005.44
2017-06-12T11:55:26.729Z,1005.40
2017-06-12T11:56:26.728Z,1005.38
2017-06-12T11:57:26.730Z,1005.45
2017-06-12T11:58:26.735Z,1005.51
2017-06-12T11:59:26.704Z,1005.64
2017-06-12T12:00:26.739Z,1005.49
2017-06-12T12:01:26.734Z,1005.40
2017-06-12T12:02:26.736Z,1005.43
2017-06-12T12:03:26.727Z,1005.50
2017-06-12T12:04:26.726Z,1005.51
2017-06-12T12:05:26.726Z,1005.53
2017-06-12T12:06:26.725Z,1005.51